Time;durP1;ratioP1;P1;durP2;ratioP2;P2;SDS_P1;SDS_P2;PMS_P1;PMS_P2;Temp;Humidity;BMP_temperature;BMP_pressure;BME280_temperature;BME280_humidity;BME280_pressure;Samples;Min_cycle;Max_cycle;Signal;HPM_P1;HPM_P2
2021/03/19 00:00:26;;;;;;;8.27;5.00;;;-1.40;99.90;;;;;;2080911;28;20170;-62
2021/03/19 00:01:27;;;;;;;10.90;5.57;;;-1.40;99.90;;;;;;2080379;28;20173;-62
2021/03/19 00:02:28;;;;;;;6.53;4.50;;;-1.40;99.90;;;;;;2081259;28;20223;-62
2021/03/19 00:03:29;;;;;;;8.10;5.88;;;-1.40;99.90;;;;;;2080854;28;20178;-62
2021/03/19 00:04:31;;;;;;;6.97;5.13;;;-1.40;99.90;;;;;;2081373;28;20198;-62
2021/03/19 00:05:31;;;;;;;6.32;4.63;;;-1.30;99.90;;;;;;2081086;28;21185;-62
2021/03/19 00:06:33;;;;;;;6.93;5.43;;;-1.40;99.90;;;;;;2081187;28;20195;-62
2021/03/19 00:07:56;;;;;;;6.53;4.53;;;-1.40;99.90;;;;;;2081127;28;20175;-62
2021/03/19 00:08:56;;;;;;;6.47;4.63;;;-1.40;99.90;;;;;;2081071;28;20711;-63
2021/03/19 00:09:57;;;;;;;7.37;5.17;;;-1.40;99.90;;;;;;2081106;28;20258;-63
2021/03/19 00:10:58;;;;;;;7.00;5.20;;;-1.30;99.90;;;;;;2080355;28;20168;-62
2021/03/19 00:11:59;;;;;;;8.20;5.63;;;-1.20;99.90;;;;;;2080997;28;20183;-62
2021/03/19 00:13:04;;;;;;;7.57;5.10;;;-1.20;99.90;;;;;;2081178;28;20187;-62
2021/03/19 00:14:07;;;;;;;6.97;4.93;;;-1.10;99.90;;;;;;2080833;28;20258;-62
2021/03/19 00:15:09;;;;;;;7.07;4.60;;;-1.20;99.90;;;;;;2081026;28;20183;-62
2021/03/19 00:16:11;;;;;;;7.78;5.40;;;-1.10;99.90;;;;;;2080888;28;20219;-62
2021/03/19 00:17:12;;;;;;;8.32;5.18;;;-1.10;99.90;;;;;;2080705;28;20199;-61
2021/03/19 00:18:13;;;;;;;7.93;5.30;;;-1.10;99.90;;;;;;2081176;28;20199;-62
2021/03/19 00:19:14;;;;;;;7.68;5.80;;;-1.10;99.90;;;;;;2080978;28;20180;-62
2021/03/19 00:20:15;;;;;;;8.73;5.30;;;-1.10;99.90;;;;;;2080879;28;20535;-62
2021/03/19 00:21:16;;;;;;;6.70;5.00;;;-1.10;99.90;;;;;;2080353;28;20171;-62
2021/03/19 00:22:17;;;;;;;7.43;5.40;;;-1.10;99.90;;;;;;2071874;28;20275;-62
2021/03/19 00:23:18;;;;;;;7.30;5.00;;;-1.00;99.90;;;;;;2072291;28;20180;-61
2021/03/19 00:24:18;;;;;;;6.00;4.80;;;-1.10;99.90;;;;;;2080973;28;20185;-62
2021/03/19 00:25:19;;;;;;;8.30;4.53;;;-1.10;99.90;;;;;;2080850;28;20216;-63
2021/03/19 00:26:20;;;;;;;7.37;4.73;;;-1.10;99.90;;;;;;2080862;28;20178;-61
2021/03/19 00:27:21;;;;;;;6.07;4.40;;;-1.10;99.90;;;;;;2080930;28;20229;-62
2021/03/19 00:28:21;;;;;;;8.00;4.80;;;-1.10;99.90;;;;;;2080850;28;20175;-63
2021/03/19 00:29:22;;;;;;;8.00;5.80;;;-1.20;99.90;;;;;;2080991;28;20175;-61
2021/03/19 00:30:24;;;;;;;10.00;4.83;;;-1.20;99.90;;;;;;2080879;28;20210;-62
2021/03/19 00:31:24;;;;;;;6.80;4.68;;;-1.20;99.90;;;;;;2080390;28;20175;-62
2021/03/19 00:32:26;;;;;;;7.70;4.73;;;-1.20;99.90;;;;;;2072170;28;20267;-63
2021/03/19 00:33:26;;;;;;;10.73;6.00;;;-1.20;99.90;;;;;;2072139;28;20177;-62
2021/03/19 00:34:27;;;;;;;7.27;4.70;;;-1.20;99.90;;;;;;2072165;28;20711;-62
2021/03/19 00:35:28;;;;;;;6.73;5.10;;;-1.20;99.90;;;;;;2072181;28;20176;-62
2021/03/19 00:36:29;;;;;;;7.30;5.53;;;-1.20;99.90;;;;;;2080832;28;20229;-62
2021/03/19 00:37:29;;;;;;;6.23;4.43;;;-1.10;99.90;;;;;;2080922;28;20587;-63
2021/03/19 00:38:30;;;;;;;7.53;5.23;;;-1.10;99.90;;;;;;2080672;28;20171;-62
2021/03/19 00:39:31;;;;;;;6.73;5.10;;;-1.10;99.90;;;;;;2080828;28;20642;-62
2021/03/19 00:40:32;;;;;;;8.37;5.87;;;-1.20;99.90;;;;;;2080963;28;20249;-62
2021/03/19 00:41:33;;;;;;;6.35;4.72;;;-1.20;99.90;;;;;;2080194;28;20172;-62
2021/03/19 00:42:34;;;;;;;8.30;6.03;;;-1.20;99.90;;;;;;2080846;28;20233;-63
2021/03/19 00:43:34;;;;;;;7.60;5.50;;;-1.20;99.90;;;;;;2080836;28;20297;-61
2021/03/19 00:44:39;;;;;;;10.13;5.43;;;-1.20;99.90;;;;;;2080871;28;20179;-61
2021/03/19 00:45:40;;;;;;;7.57;5.03;;;-1.30;99.90;;;;;;2080815;28;20176;-63
2021/03/19 00:46:40;;;;;;;6.93;5.33;;;-1.30;99.90;;;;;;2080758;28;20635;-63
2021/03/19 00:47:41;;;;;;;7.67;6.07;;;-1.30;99.90;;;;;;2081012;28;20446;-63
2021/03/19 00:48:42;;;;;;;7.18;5.13;;;-1.20;99.90;;;;;;2073454;28;20199;-63
2021/03/19 00:49:43;;;;;;;7.00;5.57;;;-1.20;99.90;;;;;;2073592;28;20186;-62
2021/03/19 00:50:44;;;;;;;8.60;5.47;;;-1.20;99.90;;;;;;2082234;28;20203;-62
2021/03/19 00:51:44;;;;;;;8.10;5.68;;;-1.20;99.90;;;;;;2082156;28;20171;-63
2021/03/19 00:52:45;;;;;;;6.70;5.77;;;-1.30;99.90;;;;;;2082522;28;20717;-62
2021/03/19 00:53:46;;;;;;;8.30;5.37;;;-1.20;99.90;;;;;;2073642;28;20211;-61
2021/03/19 00:54:47;;;;;;;6.43;5.30;;;-1.20;99.90;;;;;;2073645;28;20175;-62
2021/03/19 00:55:51;;;;;;;9.20;6.07;;;-1.20;99.90;;;;;;2082390;28;20203;-62
2021/03/19 00:56:52;;;;;;;6.95;5.75;;;-1.10;99.90;;;;;;2082612;28;20213;-63
2021/03/19 00:57:52;;;;;;;8.47;5.80;;;-1.10;99.90;;;;;;2073706;28;20191;-62
2021/03/19 00:58:53;;;;;;;7.57;5.00;;;-1.10;99.90;;;;;;2073752;28;20180;-61
2021/03/19 00:59:54;;;;;;;9.47;6.03;;;-1.10;99.90;;;;;;2082408;28;20528;-61
2021/03/19 01:00:55;;;;;;;8.30;5.43;;;-1.10;99.90;;;;;;2081563;28;20430;-62
2021/03/19 01:01:55;;;;;;;7.40;5.17;;;-1.10;99.90;;;;;;2082524;28;20183;-63
2021/03/19 01:02:56;;;;;;;6.50;4.60;;;-1.10;99.90;;;;;;2082392;28;20176;-62
2021/03/19 01:03:57;;;;;;;5.93;4.80;;;-1.00;99.90;;;;;;2082501;28;20213;-62
2021/03/19 01:04:58;;;;;;;8.53;5.90;;;-1.10;99.90;;;;;;2082500;28;20448;-62
2021/03/19 01:05:59;;;;;;;5.87;5.07;;;-1.20;99.90;;;;;;2082336;28;20283;-63
2021/03/19 01:07:00;;;;;;;7.60;5.18;;;-1.20;99.90;;;;;;2082319;28;20210;-62
2021/03/19 01:08:03;;;;;;;6.10;4.73;;;-1.10;99.90;;;;;;2073617;28;20176;-63
2021/03/19 01:09:04;;;;;;;10.23;5.15;;;-1.10;99.90;;;;;;2073987;28;20217;-63
2021/03/19 01:10:10;;;;;;;6.85;5.05;;;-1.20;99.90;;;;;;2082502;28;20189;-63
2021/03/19 01:11:10;;;;;;;6.63;4.97;;;-1.20;99.90;;;;;;2072947;28;20245;-63
2021/03/19 01:12:11;;;;;;;6.77;5.60;;;-1.20;99.90;;;;;;2073474;28;20658;-62
2021/03/19 01:13:13;;;;;;;7.60;5.03;;;-1.20;99.90;;;;;;2081867;28;20229;-63
2021/03/19 01:14:15;;;;;;;10.52;5.88;;;-1.20;99.90;;;;;;2082301;28;20194;-62
2021/03/19 01:15:16;;;;;;;6.72;5.10;;;-1.20;99.90;;;;;;2082338;28;20188;-62
2021/03/19 01:16:17;;;;;;;7.07;5.83;;;-1.20;99.90;;;;;;2082137;28;20213;-63
2021/03/19 01:17:18;;;;;;;8.13;5.47;;;-1.20;99.90;;;;;;2082087;28;20172;-62
2021/03/19 01:18:24;;;;;;;10.17;5.57;;;-1.30;99.90;;;;;;2082119;28;20182;-62
2021/03/19 01:19:25;;;;;;;9.77;5.85;;;-1.30;99.90;;;;;;2073406;28;20179;-62
2021/03/19 01:20:29;;;;;;;9.53;5.20;;;-1.30;99.90;;;;;;2073651;28;20191;-62
2021/03/19 01:21:30;;;;;;;8.57;5.88;;;-1.30;99.90;;;;;;2072900;28;20208;-62
2021/03/19 01:22:31;;;;;;;9.93;6.30;;;-1.30;99.90;;;;;;2073389;28;20183;-62
2021/03/19 01:23:32;;;;;;;8.47;6.13;;;-1.30;99.90;;;;;;2073550;28;20213;-61
2021/03/19 01:24:33;;;;;;;9.82;5.45;;;-1.30;99.90;;;;;;2073594;28;20624;-62
2021/03/19 01:25:34;;;;;;;7.47;5.50;;;-1.30;99.90;;;;;;2082220;28;20249;-62
2021/03/19 01:26:35;;;;;;;6.90;5.20;;;-1.30;99.90;;;;;;2082174;28;20260;-63
2021/03/19 01:27:36;;;;;;;9.10;6.10;;;-1.30;99.90;;;;;;2082222;28;20691;-60
2021/03/19 01:28:36;;;;;;;8.33;5.90;;;-1.30;99.90;;;;;;2082154;28;20186;-62
2021/03/19 01:29:37;;;;;;;7.57;5.23;;;-1.30;99.90;;;;;;2082254;28;20175;-63
2021/03/19 01:30:39;;;;;;;8.93;6.27;;;-1.30;99.90;;;;;;2082264;28;20596;-62
2021/03/19 01:31:40;;;;;;;10.05;6.43;;;-1.40;99.90;;;;;;2081730;28;20179;-62
2021/03/19 01:32:41;;;;;;;9.83;6.17;;;-1.40;99.90;;;;;;2082225;28;20232;-62
2021/03/19 01:33:42;;;;;;;7.03;5.30;;;-1.40;99.90;;;;;;2083301;28;20670;-62
2021/03/19 01:34:42;;;;;;;8.70;6.40;;;-1.40;99.90;;;;;;2083312;28;20179;-61
2021/03/19 01:35:44;;;;;;;11.07;6.17;;;-1.50;99.90;;;;;;2082114;28;20643;-63
2021/03/19 01:36:45;;;;;;;9.18;6.45;;;-1.50;99.90;;;;;;2082110;28;20204;-61
2021/03/19 01:37:45;;;;;;;9.80;5.70;;;-1.50;99.90;;;;;;2082314;28;20255;-62
2021/03/19 01:38:46;;;;;;;8.50;6.10;;;-1.50;99.90;;;;;;2082194;28;20217;-61
2021/03/19 01:39:47;;;;;;;8.43;6.50;;;-1.50;99.90;;;;;;2082212;28;20201;-62
2021/03/19 01:40:48;;;;;;;8.53;6.63;;;-1.50;99.90;;;;;;2081875;28;20233;-62
2021/03/19 01:41:52;;;;;;;8.93;6.53;;;-1.50;99.90;;;;;;2081850;28;20179;-62
2021/03/19 01:43:18;;;;;;;8.88;6.85;;;-1.50;99.90;;;;;;2073392;28;20211;-62
2021/03/19 01:44:33;;;;;;;7.95;5.80;;;-1.50;99.90;;;;;;2077024;28;20168;-62
2021/03/19 01:46:33;;;;;;;9.40;6.32;;;-1.60;99.90;;;;;;2082093;28;20188;-63
2021/03/19 01:48:30;;;;;;;7.28;5.30;;;-1.50;99.90;;;;;;2082075;28;20640;-62
2021/03/19 01:50:29;;;;;;;8.15;5.60;;;-1.60;99.90;;;;;;2081942;28;20705;-62
2021/03/19 01:52:26;;;;;;;9.65;5.68;;;-1.70;99.90;;;;;;2081516;28;20177;-62
2021/03/19 01:54:23;;;;;;;9.10;5.70;;;-1.70;99.90;;;;;;2081914;28;20695;-63
2021/03/19 01:56:20;;;;;;;7.40;5.55;;;-1.80;99.90;;;;;;2081923;28;20216;-62
2021/03/19 01:58:17;;;;;;;7.50;5.75;;;-1.80;99.90;;;;;;2082059;28;20198;-61
2021/03/19 02:00:14;;;;;;;8.20;5.47;;;-1.90;99.90;;;;;;2082023;28;20185;-62
2021/03/19 02:02:11;;;;;;;7.63;5.95;;;-1.90;99.90;;;;;;2081626;28;20205;-62
2021/03/19 02:04:08;;;;;;;9.60;6.55;;;-2.00;99.90;;;;;;2082138;28;20191;-62
2021/03/19 02:06:05;;;;;;;9.10;6.25;;;-2.00;99.90;;;;;;2082018;28;20228;-62
2021/03/19 02:08:01;;;;;;;9.57;6.25;;;-2.10;99.90;;;;;;2081918;28;20202;-62
2021/03/19 02:10:08;;;;;;;10.13;6.65;;;-2.20;99.90;;;;;;2082164;28;20168;-63
2021/03/19 02:12:05;;;;;;;8.23;5.75;;;-2.20;99.90;;;;;;2063849;28;20229;-62
2021/03/19 02:14:01;;;;;;;8.57;6.00;;;-2.30;99.90;;;;;;2073255;28;20652;-63
2021/03/19 02:15:58;;;;;;;11.77;6.00;;;-2.40;99.90;;;;;;2081251;28;20216;-63
2021/03/19 02:17:55;;;;;;;12.13;7.45;;;-2.40;99.90;;;;;;2081497;28;20243;-62
2021/03/19 02:19:52;;;;;;;8.73;5.75;;;-2.50;99.90;;;;;;2081722;28;20702;-62
2021/03/19 02:21:49;;;;;;;10.10;5.85;;;-2.60;99.90;;;;;;2081277;28;20181;-62
2021/03/19 02:23:46;;;;;;;8.07;5.65;;;-2.70;99.90;;;;;;2081649;28;20184;-62
2021/03/19 02:25:43;;;;;;;11.50;6.93;;;-2.80;99.90;;;;;;2081790;28;20212;-63
2021/03/19 02:27:44;;;;;;;8.27;5.85;;;-2.90;99.90;;;;;;2081647;28;20189;-61
2021/03/19 02:29:41;;;;;;;9.52;6.43;;;-3.00;99.90;;;;;;2067649;28;20286;-62
2021/03/19 02:31:12;;;;;;;9.60;6.20;;;-3.00;99.90;;;;;;2072891;28;20188;-62
2021/03/19 02:32:17;;;;;;;11.85;7.03;;;-3.10;99.90;;;;;;2077400;28;20177;-62
2021/03/19 02:33:18;;;;;;;13.30;7.15;;;-3.10;99.90;;;;;;2072741;28;20174;-61
2021/03/19 02:34:31;;;;;;;13.33;8.13;;;-3.20;99.90;;;;;;2073157;28;20632;-62
2021/03/19 02:35:32;;;;;;;11.10;7.32;;;-3.20;99.90;;;;;;2072928;28;20182;-62
2021/03/19 02:36:32;;;;;;;12.40;7.43;;;-3.20;99.90;;;;;;2064787;28;20857;-62
2021/03/19 02:37:36;;;;;;;12.17;7.70;;;-3.20;99.90;;;;;;2072909;28;20902;-62
2021/03/19 02:38:37;;;;;;;12.90;7.78;;;-3.20;99.90;;;;;;2081600;28;20181;-61
2021/03/19 02:39:38;;;;;;;12.63;7.57;;;-3.20;99.90;;;;;;2081641;28;20178;-62
2021/03/19 02:40:39;;;;;;;10.50;7.53;;;-3.30;99.90;;;;;;2081815;28;20621;-61
2021/03/19 02:41:40;;;;;;;14.07;8.37;;;-3.30;99.90;;;;;;2081098;28;20184;-62
2021/03/19 02:42:40;;;;;;;10.90;7.60;;;-3.30;99.90;;;;;;2081753;28;20169;-63
2021/03/19 02:43:41;;;;;;;12.13;7.07;;;-3.30;99.90;;;;;;2081376;28;20535;-62
2021/03/19 02:44:42;;;;;;;10.83;7.40;;;-3.40;99.90;;;;;;2081502;28;20177;-62
2021/03/19 02:45:43;;;;;;;14.27;8.40;;;-3.40;99.90;;;;;;2081433;28;20207;-62
2021/03/19 02:46:44;;;;;;;13.73;8.23;;;-3.40;99.90;;;;;;2081716;28;20197;-62
2021/03/19 02:47:44;;;;;;;11.70;7.40;;;-3.40;99.90;;;;;;2081571;28;20235;-61
2021/03/19 02:48:45;;;;;;;14.10;8.47;;;-3.40;99.90;;;;;;2081594;28;20648;-62
2021/03/19 02:49:47;;;;;;;11.87;7.47;;;-3.40;99.90;;;;;;2081302;28;20181;-62
2021/03/19 02:50:49;;;;;;;12.85;8.32;;;-3.40;99.90;;;;;;2081555;28;20250;-62
2021/03/19 02:51:54;;;;;;;13.43;7.25;;;-3.40;99.90;;;;;;2081431;28;20227;-62
2021/03/19 02:52:54;;;;;;;13.55;9.23;;;-3.40;99.90;;;;;;2081721;28;20191;-63
2021/03/19 02:53:55;;;;;;;13.53;7.93;;;-3.40;99.90;;;;;;2081552;28;20189;-61
2021/03/19 02:54:56;;;;;;;14.27;8.30;;;-3.40;99.90;;;;;;2081480;28;20757;-63
2021/03/19 02:56:03;;;;;;;14.00;8.70;;;-3.40;99.90;;;;;;2081378;28;20209;-62
2021/03/19 02:57:04;;;;;;;14.55;8.65;;;-3.30;99.90;;;;;;2081827;28;20232;-62
2021/03/19 02:58:05;;;;;;;13.85;7.80;;;-3.30;99.90;;;;;;2081497;28;20200;-62
2021/03/19 02:59:05;;;;;;;12.23;7.90;;;-3.30;99.90;;;;;;2081511;28;20189;-61
2021/03/19 03:00:11;;;;;;;16.60;8.73;;;-3.30;99.90;;;;;;2081439;28;20197;-62
2021/03/19 03:01:11;;;;;;;11.35;7.57;;;-3.30;99.90;;;;;;2064103;28;20205;-62
2021/03/19 03:02:12;;;;;;;11.53;7.63;;;-3.40;99.90;;;;;;2064353;28;20171;-62
2021/03/19 03:03:13;;;;;;;11.80;7.90;;;-3.40;99.90;;;;;;2081568;28;20539;-62
2021/03/19 03:04:15;;;;;;;11.68;7.30;;;-3.40;99.90;;;;;;2081440;28;20173;-63
2021/03/19 03:05:18;;;;;;;12.65;7.95;;;-3.50;99.90;;;;;;2081545;28;20177;-62
2021/03/19 03:06:18;;;;;;;12.15;8.23;;;-3.50;99.90;;;;;;2081141;28;20182;-62
2021/03/19 03:07:32;;;;;;;15.20;8.37;;;-3.50;99.90;;;;;;2081495;28;20265;-61
2021/03/19 03:08:33;;;;;;;13.82;7.95;;;-3.50;99.90;;;;;;2072840;28;20703;-62
2021/03/19 03:09:35;;;;;;;11.50;7.30;;;-3.60;99.90;;;;;;2072757;28;20174;-61
2021/03/19 03:10:37;;;;;;;12.20;7.95;;;-3.60;99.90;;;;;;2081512;28;20565;-61
2021/03/19 03:11:39;;;;;;;11.90;7.60;;;-3.60;99.90;;;;;;2080529;28;20185;-62
2021/03/19 03:12:40;;;;;;;14.20;7.97;;;-3.60;99.90;;;;;;2081548;28;20654;-62
2021/03/19 03:13:41;;;;;;;15.80;8.90;;;-3.60;99.90;;;;;;2072686;28;20228;-61
2021/03/19 03:14:41;;;;;;;12.97;8.50;;;-3.70;99.90;;;;;;2072707;28;20212;-61
2021/03/19 03:15:43;;;;;;;11.03;6.83;;;-3.70;99.90;;;;;;2081439;28;20707;-62
2021/03/19 03:16:45;;;;;;;13.43;7.47;;;-3.70;99.90;;;;;;2081028;28;20366;-61
2021/03/19 03:17:48;;;;;;;12.82;7.53;;;-3.70;99.90;;;;;;2081284;28;20739;-62
2021/03/19 03:18:48;;;;;;;10.57;6.75;;;-3.70;99.90;;;;;;2072558;28;20213;-62
2021/03/19 03:19:49;;;;;;;11.60;7.23;;;-3.70;99.90;;;;;;2072566;28;20205;-62
2021/03/19 03:20:57;;;;;;;9.55;6.85;;;-3.70;99.90;;;;;;2080769;28;20173;-62
2021/03/19 03:21:58;;;;;;;11.93;6.95;;;-3.70;99.90;;;;;;2081164;28;20264;-62
2021/03/19 03:22:59;;;;;;;13.77;7.00;;;-3.70;99.90;;;;;;2081724;28;20172;-62
2021/03/19 03:24:01;;;;;;;11.82;6.95;;;-3.80;99.90;;;;;;2081453;28;20194;-61
2021/03/19 03:25:03;;;;;;;11.63;6.97;;;-3.80;99.90;;;;;;2081641;28;20180;-62
2021/03/19 03:26:04;;;;;;;11.18;6.57;;;-3.80;99.90;;;;;;2081360;28;20180;-62
2021/03/19 03:27:08;;;;;;;11.67;7.67;;;-3.80;99.90;;;;;;2081166;28;20736;-62
2021/03/19 03:28:10;;;;;;;10.38;6.60;;;-3.80;99.90;;;;;;2072385;28;20265;-62
2021/03/19 03:29:12;;;;;;;11.70;6.45;;;-3.90;99.90;;;;;;2072695;28;20556;-62
2021/03/19 03:30:27;;;;;;;9.40;6.35;;;-3.90;99.90;;;;;;2072782;28;20182;-62
2021/03/19 03:31:28;;;;;;;9.93;6.53;;;-3.90;99.90;;;;;;2074058;28;20193;-62
2021/03/19 03:32:28;;;;;;;11.47;7.43;;;-4.00;99.90;;;;;;2081363;28;20184;-63
2021/03/19 03:33:29;;;;;;;14.00;7.50;;;-4.00;99.90;;;;;;2081041;28;20213;-62
2021/03/19 03:34:31;;;;;;;10.50;6.93;;;-4.00;99.90;;;;;;2081258;28;20200;-61
2021/03/19 03:35:33;;;;;;;10.30;6.63;;;-4.10;99.90;;;;;;2083535;28;20177;-61
2021/03/19 03:36:36;;;;;;;9.52;6.18;;;-4.10;99.90;;;;;;2080975;28;20248;-61
2021/03/19 03:37:36;;;;;;;9.38;6.25;;;-4.10;99.90;;;;;;2081230;28;20177;-62
2021/03/19 03:38:37;;;;;;;12.90;7.70;;;-4.20;99.90;;;;;;2081081;28;20272;-62
2021/03/19 03:39:38;;;;;;;9.15;5.95;;;-4.20;99.90;;;;;;2080925;28;20207;-62
2021/03/19 03:40:58;;;;;;;8.43;6.30;;;-4.20;99.90;;;;;;2081158;28;20189;-62
2021/03/19 03:42:04;;;;;;;8.73;5.53;;;-4.20;99.90;;;;;;2081005;28;20169;-61
2021/03/19 03:43:05;;;;;;;8.70;5.75;;;-4.30;99.90;;;;;;2072472;28;20233;-61
2021/03/19 03:44:06;;;;;;;10.48;6.38;;;-4.30;99.90;;;;;;2072228;28;20520;-61
2021/03/19 03:45:09;;;;;;;9.90;6.17;;;-4.30;99.90;;;;;;2081232;28;20212;-62
2021/03/19 03:46:15;;;;;;;11.15;7.07;;;-4.30;99.90;;;;;;2080715;28;20651;-61
2021/03/19 03:47:16;;;;;;;10.27;6.13;;;-4.40;99.90;;;;;;2081109;28;20211;-62
2021/03/19 03:48:27;;;;;;;10.57;6.40;;;-4.40;99.90;;;;;;2080990;28;20223;-62
2021/03/19 03:49:28;;;;;;;10.48;6.07;;;-4.40;99.90;;;;;;2072118;28;20432;-61
2021/03/19 03:50:30;;;;;;;10.00;6.53;;;-4.30;99.90;;;;;;2080776;28;20185;-62
2021/03/19 03:51:31;;;;;;;9.38;6.45;;;-4.40;99.90;;;;;;2080318;28;20489;-62
2021/03/19 03:52:32;;;;;;;9.35;6.22;;;-4.40;99.90;;;;;;2080365;28;20717;-61
2021/03/19 03:53:37;;;;;;;9.70;6.23;;;-4.40;99.90;;;;;;2080482;28;20188;-62
2021/03/19 03:54:37;;;;;;;10.57;6.85;;;-4.40;99.90;;;;;;2072280;28;20257;-62
2021/03/19 03:55:40;;;;;;;9.93;6.53;;;-4.40;99.90;;;;;;2073085;28;20185;-60
2021/03/19 03:56:42;;;;;;;9.15;6.40;;;-4.40;99.90;;;;;;2081251;28;20201;-61
2021/03/19 03:57:42;;;;;;;9.65;5.93;;;-4.40;99.90;;;;;;2081255;28;20179;-62
2021/03/19 03:58:44;;;;;;;10.43;6.37;;;-4.40;99.90;;;;;;2080460;28;20177;-62
2021/03/19 03:59:46;;;;;;;8.30;5.88;;;-4.50;99.90;;;;;;2080305;28;20244;-62
2021/03/19 04:00:47;;;;;;;8.20;5.40;;;-4.50;99.90;;;;;;2080800;28;20538;-62
2021/03/19 04:01:49;;;;;;;8.55;5.85;;;-4.50;99.90;;;;;;2080526;28;20662;-62
2021/03/19 04:02:50;;;;;;;9.52;6.18;;;-4.50;99.90;;;;;;2081435;28;20303;-62
2021/03/19 04:03:51;;;;;;;8.65;5.78;;;-4.50;99.90;;;;;;2081069;28;20219;-62
2021/03/19 04:04:52;;;;;;;9.00;6.43;;;-4.50;99.90;;;;;;2081201;28;20166;-63
2021/03/19 04:05:53;;;;;;;8.02;6.03;;;-4.50;99.90;;;;;;2080233;28;20685;-62
2021/03/19 04:06:54;;;;;;;9.20;6.37;;;-4.50;99.90;;;;;;2080434;28;20202;-61
2021/03/19 04:07:55;;;;;;;8.85;5.43;;;-4.50;99.90;;;;;;2080705;28;20416;-62
2021/03/19 04:08:56;;;;;;;10.57;5.90;;;-4.50;99.90;;;;;;2081197;28;20220;-62
2021/03/19 04:09:56;;;;;;;9.77;6.13;;;-4.40;99.90;;;;;;2080885;28;20537;-62
2021/03/19 04:11:01;;;;;;;7.80;5.17;;;-4.40;99.90;;;;;;2080365;28;20174;-62
2021/03/19 04:12:02;;;;;;;8.98;6.10;;;-4.40;99.90;;;;;;2071988;28;20166;-61
2021/03/19 04:13:04;;;;;;;9.03;6.60;;;-4.40;99.90;;;;;;2072513;28;20178;-62
2021/03/19 04:14:05;;;;;;;10.23;6.53;;;-4.30;99.90;;;;;;2080840;28;20403;-61
2021/03/19 04:15:07;;;;;;;8.63;6.15;;;-4.30;99.90;;;;;;2081076;28;20556;-61
2021/03/19 04:16:09;;;;;;;9.18;5.75;;;-4.20;99.90;;;;;;2080314;28;20594;-61
2021/03/19 04:17:23;;;;;;;9.13;6.15;;;-4.20;99.90;;;;;;2072135;28;20244;-63
2021/03/19 04:18:25;;;;;;;9.27;6.60;;;-4.20;99.90;;;;;;2074040;28;20313;-62
2021/03/19 04:19:26;;;;;;;11.70;6.90;;;-4.10;99.90;;;;;;2081105;28;20173;-62
2021/03/19 04:20:28;;;;;;;11.80;6.25;;;-4.10;99.90;;;;;;2072058;28;20227;-63
2021/03/19 04:21:28;;;;;;;9.80;6.25;;;-4.00;99.90;;;;;;2071865;28;20645;-62
2021/03/19 04:22:29;;;;;;;10.30;5.67;;;-4.00;99.90;;;;;;2080775;28;20199;-61
2021/03/19 04:23:31;;;;;;;8.73;6.10;;;-4.00;99.90;;;;;;2080761;28;20554;-61
2021/03/19 04:24:32;;;;;;;7.93;5.80;;;-4.00;99.90;;;;;;2080737;28;20252;-63
2021/03/19 04:25:33;;;;;;;7.87;5.73;;;-4.00;99.90;;;;;;2080940;28;20180;-62
2021/03/19 04:26:35;;;;;;;8.85;6.18;;;-3.90;99.90;;;;;;2080685;28;20213;-62
2021/03/19 04:27:44;;;;;;;8.52;6.25;;;-3.90;99.90;;;;;;2071920;28;20177;-62
2021/03/19 04:28:46;;;;;;;9.80;6.53;;;-3.90;99.90;;;;;;2064812;28;20209;-62
2021/03/19 04:29:47;;;;;;;9.75;5.93;;;-3.90;99.90;;;;;;2063936;28;20256;-62
2021/03/19 04:30:49;;;;;;;11.70;6.10;;;-3.90;99.90;;;;;;2071591;28;20613;-62
2021/03/19 04:31:50;;;;;;;10.55;6.43;;;-3.80;99.90;;;;;;2080593;28;20177;-63
2021/03/19 04:32:52;;;;;;;10.63;6.63;;;-3.80;99.90;;;;;;2080384;28;20195;-62
2021/03/19 04:33:53;;;;;;;8.73;5.85;;;-3.80;99.90;;;;;;2080609;28;20173;-63
2021/03/19 04:34:54;;;;;;;8.35;5.68;;;-3.80;99.90;;;;;;2080529;28;20176;-63
2021/03/19 04:36:33;;;;;;;7.53;5.70;;;-3.90;99.90;;;;;;2080531;28;20165;-63
2021/03/19 04:37:34;;;;;;;10.02;5.32;;;-3.80;99.90;;;;;;2072056;28;20248;-61
2021/03/19 04:38:36;;;;;;;8.43;5.53;;;-3.80;99.90;;;;;;2063632;28;20278;-63
2021/03/19 04:39:41;;;;;;;8.80;6.25;;;-3.70;99.90;;;;;;2072096;28;20185;-63
2021/03/19 04:40:44;;;;;;;9.50;5.60;;;-3.70;99.90;;;;;;2071590;28;20178;-61
2021/03/19 04:41:50;;;;;;;10.32;5.43;;;-3.60;99.90;;;;;;2071892;28;20204;-63
2021/03/19 04:42:52;;;;;;;8.73;6.05;;;-3.60;99.90;;;;;;2080477;28;20561;-63
2021/03/19 04:43:53;;;;;;;9.15;6.35;;;-3.60;99.90;;;;;;2080461;28;20546;-63
2021/03/19 04:44:53;;;;;;;10.43;5.37;;;-3.60;99.90;;;;;;2080398;28;20173;-61
2021/03/19 04:45:54;;;;;;;11.00;5.97;;;-3.60;99.90;;;;;;2071841;28;20181;-63
2021/03/19 04:46:55;;;;;;;9.67;6.20;;;-3.60;99.90;;;;;;2071659;28;20189;-63
2021/03/19 04:47:56;;;;;;;9.25;6.20;;;-3.60;99.90;;;;;;2080628;28;20173;-63
2021/03/19 04:48:57;;;;;;;7.28;5.65;;;-3.60;99.90;;;;;;2080434;28;20181;-63
2021/03/19 04:49:58;;;;;;;11.30;6.70;;;-3.70;99.90;;;;;;2080553;28;20193;-62
2021/03/19 04:50:58;;;;;;;10.63;6.77;;;-3.70;99.90;;;;;;2079863;28;20172;-62
2021/03/19 04:52:00;;;;;;;11.53;6.50;;;-3.70;99.90;;;;;;2080467;28;20177;-63
2021/03/19 04:53:02;;;;;;;9.32;6.18;;;-3.60;99.90;;;;;;2080475;28;20170;-63
2021/03/19 04:54:04;;;;;;;8.82;6.20;;;-3.60;99.90;;;;;;2080367;28;20176;-62
2021/03/19 04:55:07;;;;;;;11.90;6.13;;;-3.70;99.90;;;;;;2080534;28;20201;-62
2021/03/19 04:56:07;;;;;;;12.02;5.97;;;-3.70;99.90;;;;;;2080383;28;20903;-63
2021/03/19 04:57:10;;;;;;;8.33;5.77;;;-3.70;99.90;;;;;;2080472;28;20200;-62
2021/03/19 04:58:11;;;;;;;8.65;5.80;;;-3.70;99.90;;;;;;2080407;28;20598;-62
2021/03/19 04:59:11;;;;;;;8.60;6.13;;;-3.70;99.90;;;;;;2080679;28;20201;-63
2021/03/19 05:00:14;;;;;;;10.17;6.07;;;-3.70;99.90;;;;;;2080270;28;20185;-61
2021/03/19 05:01:16;;;;;;;8.93;5.93;;;-3.70;99.90;;;;;;2079903;28;20603;-62
2021/03/19 05:02:16;;;;;;;9.10;6.22;;;-3.80;99.90;;;;;;2080381;28;20943;-62
2021/03/19 05:03:17;;;;;;;8.83;6.00;;;-3.80;99.90;;;;;;2080469;28;20180;-62
2021/03/19 05:04:18;;;;;;;9.93;6.63;;;-3.80;99.90;;;;;;2071797;28;20789;-63
2021/03/19 05:05:28;;;;;;;9.38;5.65;;;-3.80;99.90;;;;;;2071819;28;20178;-62
2021/03/19 05:06:29;;;;;;;9.60;6.45;;;-3.80;99.90;;;;;;2080501;28;20185;-63
2021/03/19 05:07:29;;;;;;;10.47;5.77;;;-3.80;99.90;;;;;;2080811;28;20845;-63
2021/03/19 05:08:30;;;;;;;8.27;5.57;;;-3.80;99.90;;;;;;2080496;28;20200;-61
2021/03/19 05:09:32;;;;;;;9.73;6.67;;;-3.90;99.90;;;;;;2080755;28;20189;-62
2021/03/19 05:10:36;;;;;;;9.88;6.57;;;-3.90;99.90;;;;;;2080352;28;20264;-63
2021/03/19 05:11:37;;;;;;;11.80;7.22;;;-4.00;99.90;;;;;;2080003;28;20189;-62
2021/03/19 05:12:38;;;;;;;10.93;7.63;;;-4.00;99.90;;;;;;2080664;28;20169;-63
2021/03/19 05:13:39;;;;;;;11.73;8.07;;;-4.10;99.90;;;;;;2080928;28;20277;-61
2021/03/19 05:14:39;;;;;;;10.88;7.68;;;-4.10;99.90;;;;;;2071827;28;20642;-62
2021/03/19 05:15:41;;;;;;;11.07;7.30;;;-4.10;99.90;;;;;;2072096;28;20201;-62
2021/03/19 05:16:42;;;;;;;10.77;7.55;;;-4.10;99.90;;;;;;2080311;28;20228;-62
2021/03/19 05:17:43;;;;;;;11.03;7.57;;;-4.10;99.90;;;;;;2080759;28;20178;-61
2021/03/19 05:18:43;;;;;;;11.07;7.23;;;-4.10;99.90;;;;;;2080583;28;20174;-61
2021/03/19 05:19:44;;;;;;;11.67;6.93;;;-4.10;99.90;;;;;;2080955;28;20166;-63
2021/03/19 05:20:45;;;;;;;9.73;6.73;;;-4.20;99.90;;;;;;2080606;28;20165;-61
2021/03/19 05:21:46;;;;;;;12.43;7.37;;;-4.20;99.90;;;;;;2080510;28;20173;-63
2021/03/19 05:22:48;;;;;;;11.88;7.03;;;-4.20;99.90;;;;;;2080653;28;20416;-62
2021/03/19 05:23:48;;;;;;;11.30;6.97;;;-4.20;99.90;;;;;;2081071;28;20173;-61
2021/03/19 05:24:50;;;;;;;9.10;6.30;;;-4.20;99.90;;;;;;2080634;28;20169;-63
2021/03/19 05:25:51;;;;;;;10.80;7.15;;;-4.20;99.90;;;;;;2080802;28;20225;-63
2021/03/19 05:26:52;;;;;;;12.93;7.60;;;-4.20;99.90;;;;;;2080616;28;20201;-62
2021/03/19 05:27:53;;;;;;;12.87;7.50;;;-4.10;99.90;;;;;;2080871;28;20189;-61
2021/03/19 05:28:54;;;;;;;12.00;7.07;;;-4.10;99.90;;;;;;2080792;28;20211;-62
2021/03/19 05:29:57;;;;;;;10.83;7.10;;;-4.10;99.90;;;;;;2080908;28;20186;-63
2021/03/19 05:30:58;;;;;;;10.95;6.95;;;-4.10;99.90;;;;;;2079992;28;20169;-63
2021/03/19 05:31:58;;;;;;;11.75;7.85;;;-4.10;99.90;;;;;;2080514;28;20169;-63
2021/03/19 05:33:03;;;;;;;9.83;7.70;;;-4.10;99.90;;;;;;2080554;28;20205;-62
2021/03/19 05:34:04;;;;;;;12.70;7.85;;;-4.10;99.90;;;;;;2080701;28;20169;-63
2021/03/19 05:35:07;;;;;;;11.20;7.87;;;-4.10;99.90;;;;;;2080926;28;20166;-62
2021/03/19 05:36:09;;;;;;;16.48;9.43;;;-4.10;99.90;;;;;;2082202;28;20201;-62
2021/03/19 05:37:10;;;;;;;18.02;11.30;;;-4.00;99.90;;;;;;2081908;28;20216;-62
2021/03/19 05:38:11;;;;;;;27.50;12.60;;;-4.00;99.90;;;;;;2082156;28;20177;-61
2021/03/19 05:39:12;;;;;;;28.40;13.27;;;-3.90;99.90;;;;;;2082010;28;20256;-63
2021/03/19 05:40:29;;;;;;;28.20;14.38;;;-3.90;99.90;;;;;;2084604;28;20200;-63
2021/03/19 05:41:34;;;;;;;24.08;12.70;;;-3.90;99.90;;;;;;2081447;28;20239;-63
2021/03/19 05:42:37;;;;;;;25.65;11.82;;;-3.90;99.90;;;;;;2081980;28;20177;-62
2021/03/19 05:44:12;;;;;;;28.25;12.70;;;-3.80;99.90;;;;;;2082162;28;20177;-63